sensor_id;sensor_type;location;lat;lon;timestamp;P1;durP1;ratioP1;P2;durP2;ratioP2
11618;SDS011;5865;48.776;9.280;2023-02-21T00:02:45;2.53;;;1.80;;
11618;SDS011;5865;48.776;9.280;2023-02-21T00:05:32;5.10;;;2.43;;
11618;SDS011;5865;48.776;9.280;2023-02-21T00:08:17;2.17;;;1.90;;
11618;SDS011;5865;48.776;9.280;2023-02-21T00:11:02;3.53;;;2.40;;
11618;SDS011;5865;48.776;9.280;2023-02-21T00:13:47;3.37;;;2.40;;
11618;SDS011;5865;48.776;9.280;2023-02-21T00:16:31;4.67;;;2.10;;
11618;SDS011;5865;48.776;9.280;2023-02-21T00:19:15;5.57;;;2.93;;
11618;SDS011;5865;48.776;9.280;2023-02-21T00:22:01;2.67;;;1.63;;
11618;SDS011;5865;48.776;9.280;2023-02-21T00:24:46;3.03;;;2.00;;
11618;SDS011;5865;48.776;9.280;2023-02-21T00:27:31;3.27;;;1.80;;
11618;SDS011;5865;48.776;9.280;2023-02-21T00:30:16;3.13;;;1.90;;
11618;SDS011;5865;48.776;9.280;2023-02-21T00:33:09;3.03;;;1.83;;
11618;SDS011;5865;48.776;9.280;2023-02-21T00:35:54;2.47;;;1.60;;
11618;SDS011;5865;48.776;9.280;2023-02-21T00:38:40;2.70;;;2.10;;
11618;SDS011;5865;48.776;9.280;2023-02-21T00:41:25;2.07;;;1.87;;
11618;SDS011;5865;48.776;9.280;2023-02-21T00:44:10;2.60;;;2.03;;
11618;SDS011;5865;48.776;9.280;2023-02-21T00:46:55;2.50;;;1.80;;
11618;SDS011;5865;48.776;9.280;2023-02-21T00:49:41;2.93;;;2.00;;
11618;SDS011;5865;48.776;9.280;2023-02-21T00:52:26;2.10;;;1.60;;
11618;SDS011;5865;48.776;9.280;2023-02-21T00:55:13;3.40;;;2.03;;
11618;SDS011;5865;48.776;9.280;2023-02-21T00:57:58;3.40;;;2.10;;
11618;SDS011;5865;48.776;9.280;2023-02-21T01:00:42;4.87;;;1.87;;
11618;SDS011;5865;48.776;9.280;2023-02-21T01:03:27;2.50;;;1.77;;
11618;SDS011;5865;48.776;9.280;2023-02-21T01:06:12;4.10;;;2.10;;
11618;SDS011;5865;48.776;9.280;2023-02-21T01:08:56;3.60;;;1.90;;
11618;SDS011;5865;48.776;9.280;2023-02-21T01:11:44;4.97;;;1.90;;
11618;SDS011;5865;48.776;9.280;2023-02-21T01:14:28;3.73;;;2.30;;
11618;SDS011;5865;48.776;9.280;2023-02-21T01:17:13;2.60;;;1.60;;
11618;SDS011;5865;48.776;9.280;2023-02-21T01:19:59;4.10;;;2.00;;
11618;SDS011;5865;48.776;9.280;2023-02-21T01:22:44;3.60;;;2.10;;
11618;SDS011;5865;48.776;9.280;2023-02-21T01:25:29;4.03;;;1.90;;
11618;SDS011;5865;48.776;9.280;2023-02-21T01:28:15;2.97;;;1.97;;
11618;SDS011;5865;48.776;9.280;2023-02-21T01:31:01;3.83;;;1.87;;
11618;SDS011;5865;48.776;9.280;2023-02-21T01:33:45;2.60;;;2.10;;
11618;SDS011;5865;48.776;9.280;2023-02-21T01:36:30;2.50;;;1.93;;
11618;SDS011;5865;48.776;9.280;2023-02-21T01:39:15;5.60;;;2.03;;
11618;SDS011;5865;48.776;9.280;2023-02-21T01:42:00;2.60;;;1.90;;
11618;SDS011;5865;48.776;9.280;2023-02-21T01:44:47;4.77;;;2.20;;
11618;SDS011;5865;48.776;9.280;2023-02-21T01:47:32;6.00;;;2.17;;
11618;SDS011;5865;48.776;9.280;2023-02-21T01:50:18;2.90;;;1.90;;
11618;SDS011;5865;48.776;9.280;2023-02-21T01:53:08;4.40;;;2.07;;
11618;SDS011;5865;48.776;9.280;2023-02-21T01:55:56;3.00;;;1.80;;
11618;SDS011;5865;48.776;9.280;2023-02-21T01:58:43;2.57;;;2.00;;
11618;SDS011;5865;48.776;9.280;2023-02-21T02:01:34;4.20;;;2.33;;
11618;SDS011;5865;48.776;9.280;2023-02-21T02:04:20;2.93;;;2.00;;
11618;SDS011;5865;48.776;9.280;2023-02-21T02:07:05;5.07;;;1.93;;
11618;SDS011;5865;48.776;9.280;2023-02-21T02:09:50;3.07;;;1.90;;
11618;SDS011;5865;48.776;9.280;2023-02-21T02:12:42;4.70;;;2.17;;
11618;SDS011;5865;48.776;9.280;2023-02-21T02:15:33;4.23;;;2.23;;
11618;SDS011;5865;48.776;9.280;2023-02-21T02:18:17;4.17;;;2.03;;
11618;SDS011;5865;48.776;9.280;2023-02-21T02:21:12;3.73;;;2.07;;
11618;SDS011;5865;48.776;9.280;2023-02-21T02:23:50;3.20;;;2.10;;
11618;SDS011;5865;48.776;9.280;2023-02-21T02:26:58;6.50;;;2.20;;
11618;SDS011;5865;48.776;9.280;2023-02-21T02:29:51;4.43;;;2.47;;
11618;SDS011;5865;48.776;9.280;2023-02-21T02:32:52;3.60;;;2.10;;
11618;SDS011;5865;48.776;9.280;2023-02-21T02:35:35;3.70;;;2.13;;
11618;SDS011;5865;48.776;9.280;2023-02-21T02:38:11;3.47;;;2.10;;
11618;SDS011;5865;48.776;9.280;2023-02-21T02:40:40;2.40;;;1.80;;
11618;SDS011;5865;48.776;9.280;2023-02-21T02:43:19;2.87;;;1.80;;
11618;SDS011;5865;48.776;9.280;2023-02-21T02:45:50;3.57;;;2.20;;
11618;SDS011;5865;48.776;9.280;2023-02-21T02:48:24;5.67;;;2.17;;
11618;SDS011;5865;48.776;9.280;2023-02-21T02:50:57;2.93;;;2.00;;
11618;SDS011;5865;48.776;9.280;2023-02-21T02:53:28;6.73;;;2.13;;
11618;SDS011;5865;48.776;9.280;2023-02-21T02:59:06;2.73;;;2.03;;
11618;SDS011;5865;48.776;9.280;2023-02-21T03:01:42;2.73;;;1.90;;
11618;SDS011;5865;48.776;9.280;2023-02-21T03:04:32;2.67;;;2.20;;
11618;SDS011;5865;48.776;9.280;2023-02-21T03:07:14;5.77;;;1.93;;
11618;SDS011;5865;48.776;9.280;2023-02-21T03:09:50;4.60;;;1.97;;
11618;SDS011;5865;48.776;9.280;2023-02-21T03:12:31;2.43;;;2.00;;
11618;SDS011;5865;48.776;9.280;2023-02-21T03:15:11;2.33;;;1.97;;
11618;SDS011;5865;48.776;9.280;2023-02-21T03:17:43;2.87;;;2.10;;
11618;SDS011;5865;48.776;9.280;2023-02-21T03:20:15;4.00;;;1.70;;
11618;SDS011;5865;48.776;9.280;2023-02-21T03:22:45;2.43;;;1.93;;
11618;SDS011;5865;48.776;9.280;2023-02-21T03:25:15;4.23;;;2.00;;
11618;SDS011;5865;48.776;9.280;2023-02-21T03:27:45;2.77;;;1.90;;
11618;SDS011;5865;48.776;9.280;2023-02-21T03:30:27;4.90;;;2.00;;
11618;SDS011;5865;48.776;9.280;2023-02-21T03:32:56;3.00;;;1.97;;
11618;SDS011;5865;48.776;9.280;2023-02-21T03:35:23;3.03;;;1.70;;
11618;SDS011;5865;48.776;9.280;2023-02-21T03:37:58;2.70;;;2.00;;
11618;SDS011;5865;48.776;9.280;2023-02-21T03:40:27;4.50;;;2.30;;
11618;SDS011;5865;48.776;9.280;2023-02-21T03:42:58;2.57;;;2.00;;
11618;SDS011;5865;48.776;9.280;2023-02-21T03:45:29;4.37;;;2.10;;
11618;SDS011;5865;48.776;9.280;2023-02-21T03:48:05;4.70;;;2.17;;
11618;SDS011;5865;48.776;9.280;2023-02-21T03:50:34;3.23;;;1.87;;
11618;SDS011;5865;48.776;9.280;2023-02-21T03:53:08;3.50;;;2.00;;
11618;SDS011;5865;48.776;9.280;2023-02-21T03:55:37;3.53;;;2.10;;
11618;SDS011;5865;48.776;9.280;2023-02-21T03:58:10;3.97;;;2.10;;
11618;SDS011;5865;48.776;9.280;2023-02-21T04:00:37;3.20;;;2.17;;
11618;SDS011;5865;48.776;9.280;2023-02-21T04:03:05;3.53;;;1.90;;
11618;SDS011;5865;48.776;9.280;2023-02-21T04:05:44;2.37;;;1.90;;
11618;SDS011;5865;48.776;9.280;2023-02-21T04:08:15;3.23;;;1.80;;
11618;SDS011;5865;48.776;9.280;2023-02-21T04:10:44;4.13;;;2.20;;
11618;SDS011;5865;48.776;9.280;2023-02-21T04:13:12;4.20;;;2.00;;
11618;SDS011;5865;48.776;9.280;2023-02-21T04:15:44;3.33;;;2.03;;
11618;SDS011;5865;48.776;9.280;2023-02-21T04:18:12;3.43;;;2.10;;
11618;SDS011;5865;48.776;9.280;2023-02-21T04:20:40;2.03;;;1.80;;
11618;SDS011;5865;48.776;9.280;2023-02-21T04:23:16;3.03;;;1.83;;
11618;SDS011;5865;48.776;9.280;2023-02-21T04:25:43;2.50;;;2.10;;
11618;SDS011;5865;48.776;9.280;2023-02-21T04:28:16;3.30;;;2.13;;
11618;SDS011;5865;48.776;9.280;2023-02-21T04:30:44;2.83;;;1.77;;
11618;SDS011;5865;48.776;9.280;2023-02-21T04:33:11;2.87;;;1.90;;
11618;SDS011;5865;48.776;9.280;2023-02-21T04:35:39;4.33;;;2.10;;
11618;SDS011;5865;48.776;9.280;2023-02-21T04:38:18;3.33;;;1.90;;
11618;SDS011;5865;48.776;9.280;2023-02-21T04:40:45;3.37;;;2.10;;
11618;SDS011;5865;48.776;9.280;2023-02-21T04:43:15;2.23;;;1.83;;
11618;SDS011;5865;48.776;9.280;2023-02-21T04:45:42;4.93;;;2.10;;
11618;SDS011;5865;48.776;9.280;2023-02-21T04:48:09;5.70;;;2.00;;
11618;SDS011;5865;48.776;9.280;2023-02-21T04:50:36;2.77;;;2.20;;
11618;SDS011;5865;48.776;9.280;2023-02-21T04:53:03;2.43;;;2.03;;
11618;SDS011;5865;48.776;9.280;2023-02-21T04:55:32;2.90;;;2.30;;
11618;SDS011;5865;48.776;9.280;2023-02-21T04:57:58;2.40;;;2.20;;
11618;SDS011;5865;48.776;9.280;2023-02-21T05:00:26;2.80;;;2.40;;
11618;SDS011;5865;48.776;9.280;2023-02-21T05:02:53;3.30;;;2.30;;
11618;SDS011;5865;48.776;9.280;2023-02-21T05:05:20;5.27;;;2.10;;
11618;SDS011;5865;48.776;9.280;2023-02-21T05:07:49;4.77;;;2.27;;
11618;SDS011;5865;48.776;9.280;2023-02-21T05:10:16;3.10;;;2.17;;
11618;SDS011;5865;48.776;9.280;2023-02-21T05:12:45;3.93;;;2.37;;
11618;SDS011;5865;48.776;9.280;2023-02-21T05:15:14;2.87;;;2.30;;
11618;SDS011;5865;48.776;9.280;2023-02-21T05:17:41;2.73;;;2.23;;
11618;SDS011;5865;48.776;9.280;2023-02-21T05:20:10;3.53;;;2.40;;
11618;SDS011;5865;48.776;9.280;2023-02-21T05:22:37;5.07;;;2.30;;
11618;SDS011;5865;48.776;9.280;2023-02-21T05:25:05;5.17;;;2.40;;
11618;SDS011;5865;48.776;9.280;2023-02-21T05:27:33;5.67;;;2.30;;
11618;SDS011;5865;48.776;9.280;2023-02-21T05:30:02;3.57;;;2.40;;
11618;SDS011;5865;48.776;9.280;2023-02-21T05:32:29;4.63;;;2.20;;
11618;SDS011;5865;48.776;9.280;2023-02-21T05:34:56;3.97;;;2.17;;
11618;SDS011;5865;48.776;9.280;2023-02-21T05:37:24;2.37;;;1.70;;
11618;SDS011;5865;48.776;9.280;2023-02-21T05:39:52;3.73;;;2.00;;
11618;SDS011;5865;48.776;9.280;2023-02-21T05:42:19;2.90;;;2.23;;
11618;SDS011;5865;48.776;9.280;2023-02-21T05:44:46;4.63;;;2.23;;
11618;SDS011;5865;48.776;9.280;2023-02-21T05:47:15;3.87;;;2.30;;
11618;SDS011;5865;48.776;9.280;2023-02-21T05:49:42;2.30;;;1.90;;
11618;SDS011;5865;48.776;9.280;2023-02-21T05:52:11;3.60;;;2.30;;
11618;SDS011;5865;48.776;9.280;2023-02-21T05:54:40;3.17;;;2.00;;
11618;SDS011;5865;48.776;9.280;2023-02-21T05:57:08;5.10;;;2.20;;
11618;SDS011;5865;48.776;9.280;2023-02-21T05:59:36;2.90;;;2.07;;
11618;SDS011;5865;48.776;9.280;2023-02-21T06:02:03;3.93;;;2.30;;
11618;SDS011;5865;48.776;9.280;2023-02-21T06:04:32;3.30;;;2.20;;
11618;SDS011;5865;48.776;9.280;2023-02-21T06:06:59;4.03;;;2.23;;
11618;SDS011;5865;48.776;9.280;2023-02-21T06:09:26;3.20;;;2.23;;
11618;SDS011;5865;48.776;9.280;2023-02-21T06:11:55;2.33;;;1.83;;
11618;SDS011;5865;48.776;9.280;2023-02-21T06:14:23;3.13;;;2.10;;
11618;SDS011;5865;48.776;9.280;2023-02-21T06:16:51;4.60;;;3.00;;
11618;SDS011;5865;48.776;9.280;2023-02-21T06:19:18;4.10;;;2.50;;
11618;SDS011;5865;48.776;9.280;2023-02-21T06:21:47;4.63;;;2.50;;
11618;SDS011;5865;48.776;9.280;2023-02-21T06:24:14;4.10;;;2.20;;
11618;SDS011;5865;48.776;9.280;2023-02-21T06:26:42;2.50;;;2.30;;
11618;SDS011;5865;48.776;9.280;2023-02-21T06:29:10;3.73;;;2.10;;
11618;SDS011;5865;48.776;9.280;2023-02-21T06:31:37;4.57;;;2.60;;
11618;SDS011;5865;48.776;9.280;2023-02-21T06:34:05;3.60;;;2.50;;
11618;SDS011;5865;48.776;9.280;2023-02-21T06:36:32;4.20;;;2.50;;
11618;SDS011;5865;48.776;9.280;2023-02-21T06:39:01;3.13;;;2.50;;
11618;SDS011;5865;48.776;9.280;2023-02-21T06:41:29;6.30;;;2.63;;
11618;SDS011;5865;48.776;9.280;2023-02-21T06:43:56;3.27;;;2.40;;
11618;SDS011;5865;48.776;9.280;2023-02-21T06:46:25;4.43;;;2.40;;
11618;SDS011;5865;48.776;9.280;2023-02-21T06:48:53;3.97;;;2.40;;
11618;SDS011;5865;48.776;9.280;2023-02-21T06:51:23;4.30;;;2.87;;
11618;SDS011;5865;48.776;9.280;2023-02-21T06:53:53;3.20;;;2.90;;
11618;SDS011;5865;48.776;9.280;2023-02-21T06:56:23;3.00;;;2.33;;
11618;SDS011;5865;48.776;9.280;2023-02-21T06:58:51;5.17;;;2.70;;
11618;SDS011;5865;48.776;9.280;2023-02-21T07:01:19;4.63;;;2.70;;
11618;SDS011;5865;48.776;9.280;2023-02-21T07:03:50;5.30;;;3.17;;
11618;SDS011;5865;48.776;9.280;2023-02-21T07:06:26;7.60;;;3.40;;
11618;SDS011;5865;48.776;9.280;2023-02-21T07:08:55;3.87;;;2.97;;
11618;SDS011;5865;48.776;9.280;2023-02-21T07:11:24;5.53;;;3.70;;
11618;SDS011;5865;48.776;9.280;2023-02-21T07:13:52;4.63;;;3.47;;
11618;SDS011;5865;48.776;9.280;2023-02-21T07:16:21;9.03;;;4.87;;
11618;SDS011;5865;48.776;9.280;2023-02-21T07:18:49;6.37;;;4.20;;
11618;SDS011;5865;48.776;9.280;2023-02-21T07:21:20;6.37;;;4.13;;
11618;SDS011;5865;48.776;9.280;2023-02-21T07:23:48;4.63;;;3.93;;
11618;SDS011;5865;48.776;9.280;2023-02-21T07:26:15;6.07;;;4.37;;
11618;SDS011;5865;48.776;9.280;2023-02-21T07:28:45;5.60;;;4.30;;
11618;SDS011;5865;48.776;9.280;2023-02-21T07:31:14;5.50;;;4.53;;
11618;SDS011;5865;48.776;9.280;2023-02-21T07:33:42;8.20;;;4.67;;
11618;SDS011;5865;48.776;9.280;2023-02-21T07:36:10;8.00;;;4.90;;
11618;SDS011;5865;48.776;9.280;2023-02-21T07:38:38;7.03;;;5.00;;
11618;SDS011;5865;48.776;9.280;2023-02-21T07:41:06;9.87;;;5.07;;
11618;SDS011;5865;48.776;9.280;2023-02-21T07:43:33;6.30;;;4.60;;
11618;SDS011;5865;48.776;9.280;2023-02-21T07:46:01;6.17;;;4.50;;
11618;SDS011;5865;48.776;9.280;2023-02-21T07:48:29;8.20;;;4.80;;
11618;SDS011;5865;48.776;9.280;2023-02-21T07:50:57;7.67;;;5.07;;
11618;SDS011;5865;48.776;9.280;2023-02-21T07:53:25;7.50;;;4.87;;
11618;SDS011;5865;48.776;9.280;2023-02-21T07:55:53;6.10;;;4.80;;
11618;SDS011;5865;48.776;9.280;2023-02-21T07:58:20;6.17;;;4.20;;
11618;SDS011;5865;48.776;9.280;2023-02-21T08:00:50;5.73;;;4.20;;
11618;SDS011;5865;48.776;9.280;2023-02-21T08:03:21;6.33;;;3.90;;
11618;SDS011;5865;48.776;9.280;2023-02-21T08:05:53;6.10;;;3.83;;
11618;SDS011;5865;48.776;9.280;2023-02-21T08:08:20;6.17;;;4.40;;
11618;SDS011;5865;48.776;9.280;2023-02-21T08:10:47;5.67;;;4.70;;
11618;SDS011;5865;48.776;9.280;2023-02-21T08:13:15;5.83;;;4.30;;
11618;SDS011;5865;48.776;9.280;2023-02-21T08:15:43;5.13;;;3.70;;
11618;SDS011;5865;48.776;9.280;2023-02-21T08:18:13;6.17;;;3.30;;
11618;SDS011;5865;48.776;9.280;2023-02-21T08:20:46;6.30;;;3.47;;
11618;SDS011;5865;48.776;9.280;2023-02-21T08:23:14;6.53;;;3.20;;
11618;SDS011;5865;48.776;9.280;2023-02-21T08:25:44;4.90;;;3.40;;
11618;SDS011;5865;48.776;9.280;2023-02-21T08:28:15;7.77;;;4.20;;
11618;SDS011;5865;48.776;9.280;2023-02-21T08:30:42;4.63;;;3.93;;
11618;SDS011;5865;48.776;9.280;2023-02-21T08:33:10;6.33;;;3.73;;
11618;SDS011;5865;48.776;9.280;2023-02-21T08:35:41;41.77;;;18.30;;
11618;SDS011;5865;48.776;9.280;2023-02-21T08:38:11;23.40;;;9.87;;
11618;SDS011;5865;48.776;9.280;2023-02-21T08:40:39;15.50;;;7.30;;
11618;SDS011;5865;48.776;9.280;2023-02-21T08:43:07;6.93;;;3.80;;
11618;SDS011;5865;48.776;9.280;2023-02-21T08:45:36;7.03;;;3.40;;
11618;SDS011;5865;48.776;9.280;2023-02-21T08:48:04;4.90;;;3.73;;
11618;SDS011;5865;48.776;9.280;2023-02-21T08:50:34;9.30;;;4.30;;
11618;SDS011;5865;48.776;9.280;2023-02-21T08:53:03;9.97;;;4.33;;
11618;SDS011;5865;48.776;9.280;2023-02-21T08:55:40;10.53;;;4.83;;
11618;SDS011;5865;48.776;9.280;2023-02-21T08:58:09;11.03;;;4.73;;
11618;SDS011;5865;48.776;9.280;2023-02-21T09:00:38;7.53;;;4.20;;
11618;SDS011;5865;48.776;9.280;2023-02-21T09:03:08;8.70;;;3.57;;
11618;SDS011;5865;48.776;9.280;2023-02-21T09:05:36;9.17;;;4.23;;
11618;SDS011;5865;48.776;9.280;2023-02-21T09:08:03;7.80;;;4.17;;
11618;SDS011;5865;48.776;9.280;2023-02-21T09:10:35;6.67;;;4.13;;
11618;SDS011;5865;48.776;9.280;2023-02-21T09:13:11;6.07;;;3.60;;
11618;SDS011;5865;48.776;9.280;2023-02-21T09:15:38;5.67;;;3.60;;
11618;SDS011;5865;48.776;9.280;2023-02-21T09:18:07;7.07;;;3.80;;
11618;SDS011;5865;48.776;9.280;2023-02-21T09:20:35;5.80;;;4.07;;
11618;SDS011;5865;48.776;9.280;2023-02-21T09:23:07;6.10;;;3.83;;
11618;SDS011;5865;48.776;9.280;2023-02-21T09:28:31;5.00;;;3.63;;
11618;SDS011;5865;48.776;9.280;2023-02-21T09:31:08;6.00;;;4.07;;
11618;SDS011;5865;48.776;9.280;2023-02-21T09:33:41;6.90;;;3.90;;
11618;SDS011;5865;48.776;9.280;2023-02-21T09:36:22;6.43;;;3.67;;
11618;SDS011;5865;48.776;9.280;2023-02-21T09:39:05;6.60;;;3.77;;
11618;SDS011;5865;48.776;9.280;2023-02-21T10:14:12;9.60;;;4.40;;
11618;SDS011;5865;48.776;9.280;2023-02-21T10:17:01;4.97;;;3.60;;
11618;SDS011;5865;48.776;9.280;2023-02-21T10:19:50;6.23;;;4.13;;
11618;SDS011;5865;48.776;9.280;2023-02-21T10:22:22;6.77;;;4.03;;
11618;SDS011;5865;48.776;9.280;2023-02-21T10:24:51;5.97;;;3.80;;
11618;SDS011;5865;48.776;9.280;2023-02-21T10:27:19;20.80;;;7.50;;
11618;SDS011;5865;48.776;9.280;2023-02-21T10:30:05;8.67;;;3.80;;
11618;SDS011;5865;48.776;9.280;2023-02-21T10:32:46;19.90;;;7.13;;
11618;SDS011;5865;48.776;9.280;2023-02-21T10:35:16;9.53;;;4.60;;
11618;SDS011;5865;48.776;9.280;2023-02-21T10:37:48;8.13;;;3.60;;
11618;SDS011;5865;48.776;9.280;2023-02-21T10:40:23;8.80;;;4.70;;
11618;SDS011;5865;48.776;9.280;2023-02-21T10:43:02;6.20;;;3.53;;
11618;SDS011;5865;48.776;9.280;2023-02-21T10:45:44;7.70;;;3.37;;
11618;SDS011;5865;48.776;9.280;2023-02-21T10:48:18;6.10;;;3.00;;
11618;SDS011;5865;48.776;9.280;2023-02-21T10:51:05;8.40;;;3.13;;
11618;SDS011;5865;48.776;9.280;2023-02-21T10:53:47;6.80;;;3.20;;
11618;SDS011;5865;48.776;9.280;2023-02-21T10:56:29;4.57;;;2.67;;
11618;SDS011;5865;48.776;9.280;2023-02-21T10:59:05;5.78;;;2.97;;
11618;SDS011;5865;48.776;9.280;2023-02-21T11:01:57;4.75;;;2.95;;
11618;SDS011;5865;48.776;9.280;2023-02-21T11:04:33;3.42;;;2.40;;
11618;SDS011;5865;48.776;9.280;2023-02-21T11:07:05;4.70;;;2.77;;
11618;SDS011;5865;48.776;9.280;2023-02-21T11:09:49;4.00;;;2.70;;
11618;SDS011;5865;48.776;9.280;2023-02-21T11:12:21;4.32;;;1.75;;
11618;SDS011;5865;48.776;9.280;2023-02-21T11:15:03;3.22;;;1.50;;
11618;SDS011;5865;48.776;9.280;2023-02-21T11:20:46;1.63;;;1.30;;
11618;SDS011;5865;48.776;9.280;2023-02-21T11:23:19;1.77;;;0.90;;
11618;SDS011;5865;48.776;9.280;2023-02-21T11:26:04;1.10;;;1.00;;
11618;SDS011;5865;48.776;9.280;2023-02-21T11:28:47;1.00;;;0.90;;
11618;SDS011;5865;48.776;9.280;2023-02-21T11:31:16;1.25;;;1.00;;
11618;SDS011;5865;48.776;9.280;2023-02-21T11:34:06;0.90;;;0.77;;
11618;SDS011;5865;48.776;9.280;2023-02-21T11:54:09;1.67;;;0.90;;
11618;SDS011;5865;48.776;9.280;2023-02-21T11:56:48;1.42;;;0.85;;
11618;SDS011;5865;48.776;9.280;2023-02-21T11:59:28;3.35;;;1.60;;
11618;SDS011;5865;48.776;9.280;2023-02-21T12:02:13;1.27;;;0.80;;
11618;SDS011;5865;48.776;9.280;2023-02-21T12:04:47;2.33;;;1.00;;
11618;SDS011;5865;48.776;9.280;2023-02-21T12:07:19;0.98;;;0.80;;
11618;SDS011;5865;48.776;9.280;2023-02-21T12:09:58;2.20;;;0.90;;
11618;SDS011;5865;48.776;9.280;2023-02-21T12:12:40;1.30;;;1.00;;
11618;SDS011;5865;48.776;9.280;2023-02-21T12:15:14;1.10;;;0.70;;
11618;SDS011;5865;48.776;9.280;2023-02-21T12:18:16;1.00;;;0.90;;
11618;SDS011;5865;48.776;9.280;2023-02-21T12:20:53;1.88;;;0.85;;
11618;SDS011;5865;48.776;9.280;2023-02-21T12:23:48;0.70;;;0.70;;
11618;SDS011;5865;48.776;9.280;2023-02-21T12:26:29;1.20;;;1.05;;
11618;SDS011;5865;48.776;9.280;2023-02-21T12:29:17;1.83;;;0.95;;
11618;SDS011;5865;48.776;9.280;2023-02-21T12:31:59;1.98;;;0.85;;
11618;SDS011;5865;48.776;9.280;2023-02-21T12:35:01;1.45;;;1.10;;
11618;SDS011;5865;48.776;9.280;2023-02-21T12:37:52;3.53;;;1.15;;
11618;SDS011;5865;48.776;9.280;2023-02-21T12:40:47;2.05;;;0.90;;
11618;SDS011;5865;48.776;9.280;2023-02-21T12:46:18;3.17;;;1.08;;
11618;SDS011;5865;48.776;9.280;2023-02-21T12:49:02;1.48;;;0.93;;
11618;SDS011;5865;48.776;9.280;2023-02-21T12:51:34;1.77;;;1.10;;
11618;SDS011;5865;48.776;9.280;2023-02-21T12:54:05;2.20;;;1.30;;
11618;SDS011;5865;48.776;9.280;2023-02-21T12:56:41;2.75;;;1.20;;
11618;SDS011;5865;48.776;9.280;2023-02-21T12:59:38;1.15;;;1.00;;
11618;SDS011;5865;48.776;9.280;2023-02-21T13:02:35;5.57;;;1.40;;
11618;SDS011;5865;48.776;9.280;2023-02-21T13:05:10;2.47;;;1.20;;
11618;SDS011;5865;48.776;9.280;2023-02-21T13:07:58;3.33;;;1.20;;
11618;SDS011;5865;48.776;9.280;2023-02-21T13:10:30;1.58;;;1.10;;
11618;SDS011;5865;48.776;9.280;2023-02-21T13:13:14;1.65;;;1.20;;
11618;SDS011;5865;48.776;9.280;2023-02-21T13:15:55;1.40;;;1.10;;
11618;SDS011;5865;48.776;9.280;2023-02-21T13:18:24;1.13;;;1.02;;
11618;SDS011;5865;48.776;9.280;2023-02-21T13:20:54;1.35;;;1.02;;
11618;SDS011;5865;48.776;9.280;2023-02-21T13:26:35;2.30;;;1.40;;
11618;SDS011;5865;48.776;9.280;2023-02-21T13:29:10;1.98;;;1.27;;
11618;SDS011;5865;48.776;9.280;2023-02-21T13:52:49;1.50;;;1.08;;
11618;SDS011;5865;48.776;9.280;2023-02-21T13:55:22;1.20;;;0.95;;
11618;SDS011;5865;48.776;9.280;2023-02-21T14:00:49;1.40;;;1.10;;
11618;SDS011;5865;48.776;9.280;2023-02-21T14:03:32;2.90;;;1.20;;
11618;SDS011;5865;48.776;9.280;2023-02-21T14:09:11;1.73;;;1.17;;
11618;SDS011;5865;48.776;9.280;2023-02-21T14:11:43;1.58;;;1.10;;
11618;SDS011;5865;48.776;9.280;2023-02-21T14:14:25;2.45;;;1.20;;
11618;SDS011;5865;48.776;9.280;2023-02-21T14:16:57;2.20;;;1.17;;
11618;SDS011;5865;48.776;9.280;2023-02-21T14:19:50;1.45;;;1.35;;
11618;SDS011;5865;48.776;9.280;2023-02-21T14:22:25;1.27;;;1.10;;
11618;SDS011;5865;48.776;9.280;2023-02-21T14:25:14;1.58;;;1.20;;
11618;SDS011;5865;48.776;9.280;2023-02-21T14:28:00;3.58;;;1.10;;
11618;SDS011;5865;48.776;9.280;2023-02-21T14:31:06;1.70;;;1.10;;
11618;SDS011;5865;48.776;9.280;2023-02-21T14:33:58;1.05;;;0.98;;
11618;SDS011;5865;48.776;9.280;2023-02-21T14:36:37;1.90;;;1.05;;
11618;SDS011;5865;48.776;9.280;2023-02-21T14:39:22;1.02;;;0.95;;
11618;SDS011;5865;48.776;9.280;2023-02-21T14:41:59;1.52;;;1.00;;
11618;SDS011;5865;48.776;9.280;2023-02-21T14:44:50;1.17;;;1.08;;
11618;SDS011;5865;48.776;9.280;2023-02-21T14:47:43;1.20;;;0.90;;
11618;SDS011;5865;48.776;9.280;2023-02-21T14:50:49;1.67;;;0.90;;
11618;SDS011;5865;48.776;9.280;2023-02-21T15:15:44;2.38;;;0.70;;
11618;SDS011;5865;48.776;9.280;2023-02-21T15:18:26;1.20;;;1.10;;
11618;SDS011;5865;48.776;9.280;2023-02-21T15:24:33;1.27;;;1.00;;
11618;SDS011;5865;48.776;9.280;2023-02-21T15:27:08;1.00;;;0.77;;
11618;SDS011;5865;48.776;9.280;2023-02-21T15:29:35;1.65;;;1.00;;
11618;SDS011;5865;48.776;9.280;2023-02-21T15:32:13;1.20;;;0.90;;
11618;SDS011;5865;48.776;9.280;2023-02-21T15:34:45;1.20;;;0.90;;
11618;SDS011;5865;48.776;9.280;2023-02-21T15:37:15;0.80;;;0.70;;
11618;SDS011;5865;48.776;9.280;2023-02-21T15:39:52;1.92;;;0.90;;
11618;SDS011;5865;48.776;9.280;2023-02-21T15:42:23;2.85;;;0.82;;
11618;SDS011;5865;48.776;9.280;2023-02-21T15:44:52;1.55;;;0.90;;
11618;SDS011;5865;48.776;9.280;2023-02-21T15:50:09;1.40;;;0.98;;
11618;SDS011;5865;48.776;9.280;2023-02-21T15:52:52;2.72;;;1.10;;
11618;SDS011;5865;48.776;9.280;2023-02-21T15:55:29;2.17;;;0.80;;
11618;SDS011;5865;48.776;9.280;2023-02-21T15:57:57;1.50;;;1.00;;
11618;SDS011;5865;48.776;9.280;2023-02-21T16:00:39;1.60;;;0.90;;
11618;SDS011;5865;48.776;9.280;2023-02-21T16:03:26;1.02;;;0.90;;
11618;SDS011;5865;48.776;9.280;2023-02-21T16:08:59;1.05;;;0.80;;
11618;SDS011;5865;48.776;9.280;2023-02-21T16:11:39;2.22;;;0.93;;
11618;SDS011;5865;48.776;9.280;2023-02-21T16:15:18;2.42;;;1.27;;
11618;SDS011;5865;48.776;9.280;2023-02-21T16:17:51;1.80;;;1.30;;
11618;SDS011;5865;48.776;9.280;2023-02-21T16:20:20;3.38;;;1.40;;
11618;SDS011;5865;48.776;9.280;2023-02-21T16:23:10;1.92;;;1.30;;
11618;SDS011;5865;48.776;9.280;2023-02-21T16:28:52;1.83;;;1.40;;
11618;SDS011;5865;48.776;9.280;2023-02-21T16:31:33;3.03;;;1.45;;
11618;SDS011;5865;48.776;9.280;2023-02-21T16:34:16;3.08;;;2.00;;
11618;SDS011;5865;48.776;9.280;2023-02-21T16:36:48;3.47;;;1.75;;
11618;SDS011;5865;48.776;9.280;2023-02-21T16:39:29;1.95;;;1.40;;
11618;SDS011;5865;48.776;9.280;2023-02-21T16:42:36;2.97;;;1.87;;
11618;SDS011;5865;48.776;9.280;2023-02-21T16:51:08;3.07;;;2.33;;
11618;SDS011;5865;48.776;9.280;2023-02-21T16:53:50;4.47;;;3.50;;
11618;SDS011;5865;48.776;9.280;2023-02-21T16:59:54;2.80;;;1.73;;
11618;SDS011;5865;48.776;9.280;2023-02-21T17:02:35;2.37;;;1.77;;
11618;SDS011;5865;48.776;9.280;2023-02-21T17:05:17;3.97;;;2.37;;
11618;SDS011;5865;48.776;9.280;2023-02-21T17:07:47;3.83;;;2.13;;
11618;SDS011;5865;48.776;9.280;2023-02-21T17:10:15;8.10;;;5.43;;
11618;SDS011;5865;48.776;9.280;2023-02-21T17:12:43;8.07;;;5.80;;
11618;SDS011;5865;48.776;9.280;2023-02-21T17:15:10;4.70;;;3.30;;
11618;SDS011;5865;48.776;9.280;2023-02-21T17:17:38;4.00;;;2.73;;
11618;SDS011;5865;48.776;9.280;2023-02-21T17:20:06;4.60;;;3.00;;
11618;SDS011;5865;48.776;9.280;2023-02-21T17:22:33;3.67;;;2.73;;
11618;SDS011;5865;48.776;9.280;2023-02-21T17:25:02;5.57;;;3.63;;
11618;SDS011;5865;48.776;9.280;2023-02-21T17:27:29;4.27;;;2.93;;
11618;SDS011;5865;48.776;9.280;2023-02-21T17:29:56;4.27;;;2.30;;
11618;SDS011;5865;48.776;9.280;2023-02-21T17:32:23;5.10;;;2.60;;
11618;SDS011;5865;48.776;9.280;2023-02-21T17:34:51;5.53;;;2.50;;
11618;SDS011;5865;48.776;9.280;2023-02-21T17:37:18;5.00;;;2.90;;
11618;SDS011;5865;48.776;9.280;2023-02-21T17:39:45;3.60;;;2.70;;
11618;SDS011;5865;48.776;9.280;2023-02-21T17:42:13;4.57;;;2.73;;
11618;SDS011;5865;48.776;9.280;2023-02-21T17:44:41;3.17;;;2.20;;
11618;SDS011;5865;48.776;9.280;2023-02-21T17:47:11;3.47;;;2.00;;
11618;SDS011;5865;48.776;9.280;2023-02-21T17:49:39;3.87;;;2.60;;
11618;SDS011;5865;48.776;9.280;2023-02-21T17:52:06;5.83;;;2.30;;
11618;SDS011;5865;48.776;9.280;2023-02-21T17:54:32;4.10;;;3.00;;
11618;SDS011;5865;48.776;9.280;2023-02-21T17:56:59;5.43;;;3.40;;
11618;SDS011;5865;48.776;9.280;2023-02-21T17:59:30;4.63;;;2.60;;
11618;SDS011;5865;48.776;9.280;2023-02-21T18:01:57;5.73;;;3.57;;
11618;SDS011;5865;48.776;9.280;2023-02-21T18:04:24;3.90;;;2.80;;
11618;SDS011;5865;48.776;9.280;2023-02-21T18:06:51;3.20;;;2.10;;
11618;SDS011;5865;48.776;9.280;2023-02-21T18:09:18;4.87;;;2.90;;